createdAt,value
2022-12-23T00:02:48.468Z,14.77
2022-12-23T00:07:56.687Z,22.33
2022-12-23T00:13:22.748Z,21.93
2022-12-23T00:18:31.585Z,19.83
2022-12-23T00:23:40.729Z,17.33
2022-12-23T00:28:48.623Z,17.47
2022-12-23T00:33:57.105Z,19.00
2022-12-23T00:39:23.303Z,21.17
2022-12-23T00:44:31.680Z,28.33
2022-12-23T00:49:43.529Z,23.10
2022-12-23T00:54:52.474Z,22.80
2022-12-23T01:00:04.684Z,20.97
2022-12-23T01:05:23.903Z,27.93
2022-12-23T01:10:32.568Z,28.13
2022-12-23T01:15:42.936Z,23.53
2022-12-23T01:20:51.807Z,30.63
2022-12-23T01:26:02.959Z,31.13
2022-12-23T01:31:11.975Z,24.73
2022-12-23T01:36:22.489Z,24.20
2022-12-23T01:42:00.472Z,22.32
2022-12-23T01:47:12.360Z,22.50
2022-12-23T01:52:21.127Z,22.70
2022-12-23T01:57:30.462Z,18.23
2022-12-23T02:03:02.197Z,17.33
2022-12-23T02:08:29.510Z,19.95
2022-12-23T02:13:47.876Z,25.47
2022-12-23T02:19:01.664Z,21.40
2022-12-23T02:24:30.640Z,23.53
2022-12-23T02:30:06.950Z,16.83
2022-12-23T02:35:17.877Z,15.93
2022-12-23T02:40:53.279Z,16.13
2022-12-23T02:46:08.654Z,16.40
2022-12-23T02:51:17.015Z,17.57
2022-12-23T02:56:25.643Z,13.73
2022-12-23T03:01:34.357Z,18.27
2022-12-23T03:06:45.704Z,18.27
2022-12-23T03:12:21.373Z,17.53
2022-12-23T03:17:52.369Z,18.63
2022-12-23T03:23:08.823Z,16.43
2022-12-23T03:28:20.106Z,19.00
2022-12-23T03:33:31.787Z,18.93
2022-12-23T03:38:40.449Z,25.63
2022-12-23T03:43:53.736Z,37.43
2022-12-23T03:49:05.361Z,35.93
2022-12-23T03:54:15.454Z,42.53
2022-12-23T03:59:25.035Z,39.23
2022-12-23T04:04:42.147Z,34.73
2022-12-23T04:09:50.238Z,35.30
2022-12-23T04:14:58.741Z,34.87
2022-12-23T04:20:07.331Z,34.20
2022-12-23T04:25:15.541Z,33.10
2022-12-23T04:30:26.765Z,35.57
2022-12-23T04:35:32.556Z,32.70
2022-12-23T04:40:40.251Z,32.80
2022-12-23T04:45:53.029Z,31.13
2022-12-23T04:51:04.190Z,25.80
2022-12-23T04:56:12.081Z,25.67
2022-12-23T05:01:21.048Z,25.60
2022-12-23T05:06:28.735Z,26.97
2022-12-23T05:11:41.924Z,28.53
2022-12-23T05:16:45.803Z,26.27
2022-12-23T05:21:53.602Z,25.43
2022-12-23T05:27:01.295Z,27.93
2022-12-23T05:32:09.231Z,25.73
2022-12-23T05:37:17.040Z,27.67
2022-12-23T05:42:24.849Z,25.83
2022-12-23T05:47:32.530Z,25.73
2022-12-23T05:52:41.611Z,23.17
2022-12-23T05:57:49.271Z,24.10
2022-12-23T06:02:57.831Z,19.20
2022-12-23T06:08:06.212Z,16.93
2022-12-23T06:13:13.852Z,21.50
2022-12-23T06:18:21.568Z,20.03
2022-12-23T06:23:29.959Z,21.73
2022-12-23T06:28:38.312Z,19.67
2022-12-23T06:33:46.594Z,17.90
2022-12-23T06:38:54.626Z,19.40
2022-12-23T06:44:02.215Z,16.17
2022-12-23T06:49:13.455Z,11.47
2022-12-23T06:54:20.713Z,13.93
2022-12-23T06:59:29.729Z,17.53
2022-12-23T07:04:38.275Z,14.57
2022-12-23T07:09:45.889Z,21.93
2022-12-23T07:14:53.470Z,12.87
2022-12-23T07:20:01.113Z,12.43
2022-12-23T07:25:09.612Z,15.17
2022-12-23T07:30:17.546Z,10.60
2022-12-23T07:35:25.454Z,15.47
2022-12-23T07:40:33.881Z,14.87
2022-12-23T07:45:41.696Z,11.37
2022-12-23T07:50:49.319Z,10.43
2022-12-23T07:55:58.631Z,9.27
2022-12-23T08:01:08.708Z,10.97
2022-12-23T08:06:16.804Z,12.47
2022-12-23T08:11:24.674Z,17.13
2022-12-23T08:16:36.509Z,9.43
2022-12-23T08:21:41.932Z,11.80
2022-12-23T08:26:52.773Z,12.80
2022-12-23T08:32:01.571Z,19.53
2022-12-23T08:37:09.222Z,15.63
2022-12-23T08:42:18.009Z,11.93
2022-12-23T08:47:25.987Z,11.10
2022-12-23T08:52:33.616Z,16.23
2022-12-23T08:57:42.341Z,14.20
2022-12-23T09:02:50.215Z,16.83
2022-12-23T09:07:58.358Z,14.13
2022-12-23T09:13:06.000Z,11.57
2022-12-23T09:18:14.958Z,8.00
2022-12-23T09:23:22.718Z,14.33
2022-12-23T09:28:30.329Z,10.77
2022-12-23T09:33:38.672Z,10.23
2022-12-23T09:38:46.371Z,13.87
2022-12-23T09:44:13.524Z,12.37
2022-12-23T09:49:21.247Z,11.93
2022-12-23T09:54:30.338Z,13.63
2022-12-23T09:59:51.331Z,13.27
2022-12-23T10:05:05.390Z,9.43
2022-12-23T10:10:17.095Z,10.23
2022-12-23T10:15:30.726Z,9.77
2022-12-23T10:20:45.105Z,9.77
2022-12-23T10:25:53.659Z,11.67
2022-12-23T10:36:19.142Z,11.27
2022-12-23T10:41:40.828Z,12.17
2022-12-23T10:46:53.398Z,11.63
2022-12-23T10:52:07.359Z,14.83
2022-12-23T10:57:16.055Z,12.27
2022-12-23T11:02:35.701Z,15.30
2022-12-23T11:07:45.336Z,11.43
2022-12-23T11:12:54.473Z,13.73
2022-12-23T11:18:07.489Z,18.93
2022-12-23T11:23:32.619Z,17.83
2022-12-23T11:28:42.457Z,15.03
2022-12-23T11:34:02.759Z,9.60
2022-12-23T11:39:17.882Z,8.30
2022-12-23T11:44:31.223Z,10.80
2022-12-23T11:49:38.961Z,12.83
2022-12-23T11:54:55.827Z,10.43
2022-12-23T12:00:06.703Z,7.83
2022-12-23T12:05:41.052Z,11.23
2022-12-23T12:10:49.492Z,13.10
2022-12-23T12:16:03.647Z,14.43
2022-12-23T12:21:15.499Z,7.50
2022-12-23T12:26:36.777Z,9.90
2022-12-23T12:31:49.563Z,8.53
2022-12-23T12:36:59.569Z,5.97
2022-12-23T12:42:16.171Z,6.33
2022-12-23T12:47:53.291Z,9.70
2022-12-23T12:52:45.882Z,7.33
2022-12-23T12:57:53.530Z,7.57
2022-12-23T13:03:19.532Z,9.73
2022-12-23T13:08:46.497Z,11.53
2022-12-23T13:14:23.258Z,15.53
2022-12-23T13:19:42.974Z,10.47
2022-12-23T13:25:11.839Z,14.10
2022-12-23T13:30:20.653Z,9.90
2022-12-23T13:35:44.119Z,11.27
2022-12-23T13:41:13.051Z,7.37
2022-12-23T13:46:27.184Z,8.83
2022-12-23T13:51:54.759Z,9.53
2022-12-23T13:57:14.621Z,8.27
2022-12-23T14:02:40.909Z,9.70
2022-12-23T14:07:49.405Z,6.60
2022-12-23T14:13:08.474Z,6.50
2022-12-23T14:18:34.605Z,6.90
2022-12-23T14:23:51.082Z,5.73
2022-12-23T14:29:13.717Z,6.90
2022-12-23T14:34:24.696Z,10.07
2022-12-23T14:39:33.923Z,8.73
2022-12-23T14:44:45.928Z,6.47
2022-12-23T14:49:53.518Z,7.83
2022-12-23T14:55:30.438Z,8.47
2022-12-23T15:00:32.124Z,18.47
2022-12-23T15:05:40.874Z,12.30
2022-12-23T15:10:48.739Z,15.87
2022-12-23T15:16:01.782Z,11.87
2022-12-23T15:21:13.574Z,23.60
2022-12-23T15:26:21.751Z,23.83
2022-12-23T15:31:35.868Z,95.90
2022-12-23T15:36:44.857Z,47.30
2022-12-23T15:41:52.844Z,130.30
2022-12-23T15:47:00.718Z,71.60
2022-12-23T15:52:13.750Z,50.47
2022-12-23T15:57:20.416Z,28.43
2022-12-23T16:07:43.260Z,25.17
2022-12-23T16:12:52.362Z,29.80
2022-12-23T16:18:22.436Z,25.27
2022-12-23T16:23:30.965Z,22.93
2022-12-23T16:28:43.880Z,23.37
2022-12-23T16:33:53.119Z,21.43
2022-12-23T16:39:10.148Z,25.80
2022-12-23T16:44:20.611Z,24.00
2022-12-23T16:49:33.422Z,20.37
2022-12-23T16:54:40.820Z,27.23
2022-12-23T16:59:50.307Z,39.50
2022-12-23T17:04:58.556Z,36.37
2022-12-23T17:10:07.109Z,43.87
2022-12-23T17:15:26.527Z,35.60
2022-12-23T17:20:36.824Z,37.20
2022-12-23T17:25:46.763Z,40.80
2022-12-23T17:30:58.801Z,35.03
2022-12-23T17:36:06.777Z,33.20
2022-12-23T17:41:29.726Z,38.13
2022-12-23T17:46:39.277Z,45.87
2022-12-23T17:51:46.947Z,54.33
2022-12-23T17:56:57.019Z,44.33
2022-12-23T18:02:35.663Z,44.80
2022-12-23T18:07:43.523Z,62.50
2022-12-23T18:12:57.765Z,54.70
2022-12-23T18:18:23.900Z,60.60
2022-12-23T18:23:32.329Z,58.07
2022-12-23T18:28:40.232Z,57.37
2022-12-23T18:33:48.003Z,49.20
2022-12-23T18:38:57.319Z,45.60
2022-12-23T18:44:05.646Z,43.10
2022-12-23T18:49:13.415Z,38.40
2022-12-23T18:54:21.162Z,40.00
2022-12-23T18:59:30.367Z,34.80
2022-12-23T19:04:43.253Z,33.73
2022-12-23T19:09:51.045Z,36.67
2022-12-23T19:15:01.196Z,44.03
2022-12-23T19:20:12.187Z,57.37
2022-12-23T19:25:20.883Z,53.93
2022-12-23T19:30:28.695Z,55.57
2022-12-23T19:35:37.457Z,47.57
2022-12-23T19:40:45.310Z,52.40
2022-12-23T19:46:00.547Z,58.33
2022-12-23T19:51:11.976Z,58.40
2022-12-23T19:56:22.904Z,55.83
2022-12-23T20:01:31.555Z,57.87
2022-12-23T20:06:39.314Z,59.13
2022-12-23T20:11:49.260Z,57.90
2022-12-23T20:16:57.705Z,57.50
2022-12-23T20:22:06.107Z,59.00
2022-12-23T20:27:16.288Z,57.93
2022-12-23T20:32:24.959Z,51.27
2022-12-23T20:37:32.686Z,52.80
2022-12-23T20:42:42.459Z,63.33
2022-12-23T20:47:50.718Z,63.97
2022-12-23T20:52:58.498Z,60.10
2022-12-23T20:58:24.479Z,59.40
2022-12-23T21:03:32.053Z,61.53
2022-12-23T21:08:40.319Z,52.60
2022-12-23T21:13:51.748Z,55.10
2022-12-23T21:19:00.408Z,60.90
2022-12-23T21:24:08.342Z,68.47
2022-12-23T21:29:18.204Z,61.00
2022-12-23T21:34:25.955Z,77.13
2022-12-23T21:39:33.768Z,68.73
2022-12-23T21:44:42.565Z,69.73
2022-12-23T21:49:53.954Z,79.87
2022-12-23T21:55:01.727Z,78.63
2022-12-23T22:00:11.918Z,68.87
2022-12-23T22:05:24.824Z,74.13
2022-12-23T22:10:32.427Z,65.30
2022-12-23T22:15:43.605Z,60.47
2022-12-23T22:20:51.322Z,49.43
2022-12-23T22:25:59.493Z,68.87
2022-12-23T22:31:10.842Z,42.40
2022-12-23T22:36:18.797Z,35.00
2022-12-23T22:41:28.105Z,49.93
2022-12-23T22:46:36.011Z,61.93
2022-12-23T22:51:44.365Z,53.93
2022-12-23T22:56:55.206Z,54.70
2022-12-23T23:02:03.316Z,44.83
2022-12-23T23:07:11.366Z,42.27
2022-12-23T23:12:19.120Z,43.73
2022-12-23T23:17:28.442Z,50.80
2022-12-23T23:22:36.581Z,41.83
2022-12-23T23:27:44.341Z,39.37
2022-12-23T23:32:54.545Z,30.53
2022-12-23T23:38:02.428Z,34.90
2022-12-23T23:43:10.315Z,33.50
2022-12-23T23:48:18.163Z,32.17
2022-12-23T23:53:25.796Z,37.83
2022-12-23T23:58:34.467Z,32.30
